createdAt,value
2019-05-01T00:01:09.851Z,23.03
2019-05-01T00:02:42.214Z,20.00
2019-05-01T00:04:14.694Z,20.47
2019-05-01T00:05:47.103Z,22.73
2019-05-01T00:07:19.440Z,17.20
2019-05-01T00:08:51.803Z,21.10
2019-05-01T00:10:24.508Z,20.37
2019-05-01T00:11:56.873Z,17.93
2019-05-01T00:13:29.310Z,19.27
2019-05-01T00:15:01.796Z,18.30
2019-05-01T00:16:34.203Z,20.83
2019-05-01T00:18:06.547Z,21.30
2019-05-01T00:19:38.915Z,19.07
2019-05-01T00:21:11.263Z,19.83
2019-05-01T00:22:43.748Z,18.27
2019-05-01T00:24:16.177Z,24.47
2019-05-01T00:25:48.604Z,19.70
2019-05-01T00:27:21.088Z,18.90
2019-05-01T00:28:53.596Z,19.90
2019-05-01T00:30:30.155Z,19.07
2019-05-01T00:32:00.036Z,19.43
2019-05-01T00:33:32.458Z,20.93
2019-05-01T00:35:04.795Z,18.70
2019-05-01T00:36:37.199Z,20.00
2019-05-01T00:38:09.687Z,20.73
2019-05-01T00:39:42.106Z,19.37
2019-05-01T00:41:14.543Z,19.07
2019-05-01T00:42:46.955Z,19.37
2019-05-01T00:44:19.302Z,17.40
2019-05-01T00:45:51.727Z,22.80
2019-05-01T00:47:24.211Z,19.60
2019-05-01T00:48:56.575Z,19.73
2019-05-01T00:50:28.975Z,18.07
2019-05-01T00:52:01.335Z,21.03
2019-05-01T00:53:33.754Z,20.43
2019-05-01T00:55:06.268Z,19.93
2019-05-01T00:56:38.680Z,20.03
2019-05-01T00:58:11.087Z,21.97
2019-05-01T00:59:43.519Z,20.67
2019-05-01T01:01:15.935Z,21.53
2019-05-01T01:02:48.275Z,18.33
2019-05-01T01:04:20.698Z,23.13
2019-05-01T01:05:53.032Z,20.67
2019-05-01T01:09:27.180Z,17.60
2019-05-01T01:10:59.516Z,18.47
2019-05-01T01:12:31.876Z,24.90
2019-05-01T01:14:04.308Z,18.47
2019-05-01T01:15:36.723Z,18.13
2019-05-01T01:17:09.134Z,20.97
2019-05-01T01:18:41.538Z,19.87
2019-05-01T01:20:14.056Z,18.40
2019-05-01T01:21:46.464Z,18.97
2019-05-01T01:23:18.811Z,27.37
2019-05-01T01:24:51.225Z,18.90
2019-05-01T01:26:23.643Z,18.70
2019-05-01T01:27:55.992Z,20.90
2019-05-01T01:29:28.407Z,18.37
2019-05-01T01:31:00.824Z,19.90
2019-05-01T01:32:33.165Z,16.60
2019-05-01T01:34:05.575Z,16.33
2019-05-01T01:35:37.998Z,16.53
2019-05-01T01:37:10.331Z,16.10
2019-05-01T01:38:42.757Z,18.23
2019-05-01T01:40:15.170Z,18.87
2019-05-01T01:41:47.509Z,20.67
2019-05-01T01:43:19.922Z,19.33
2019-05-01T01:44:52.420Z,19.67
2019-05-01T01:46:24.781Z,16.97
2019-05-01T01:47:57.179Z,18.10
2019-05-01T01:49:29.558Z,17.47
2019-05-01T01:51:01.906Z,18.40
2019-05-01T01:52:34.238Z,17.43
2019-05-01T01:54:06.658Z,17.63
2019-05-01T01:55:39.019Z,19.17
2019-05-01T01:57:11.420Z,20.93
2019-05-01T01:58:43.833Z,16.30
2019-05-01T02:00:16.191Z,18.10
2019-05-01T02:01:48.593Z,15.77
2019-05-01T02:03:20.994Z,15.93
2019-05-01T02:04:53.395Z,17.77
2019-05-01T02:06:25.811Z,20.97
2019-05-01T02:07:58.147Z,17.53
2019-05-01T02:09:30.556Z,16.10
2019-05-01T02:11:03.360Z,16.50
2019-05-01T02:12:35.755Z,19.67
2019-05-01T02:14:08.088Z,16.03
2019-05-01T02:15:40.514Z,18.10
2019-05-01T02:17:12.984Z,16.67
2019-05-01T02:18:45.312Z,15.87
2019-05-01T02:20:17.680Z,18.47
2019-05-01T02:21:50.179Z,17.63
2019-05-01T02:23:22.612Z,15.50
2019-05-01T02:24:55.040Z,17.20
2019-05-01T02:26:27.557Z,17.03
2019-05-01T02:27:59.883Z,14.13
2019-05-01T02:29:32.283Z,16.63
2019-05-01T02:31:04.731Z,20.27
2019-05-01T02:32:37.094Z,15.17
2019-05-01T02:34:09.492Z,18.10
2019-05-01T02:35:41.831Z,16.77
2019-05-01T02:37:14.179Z,20.23
2019-05-01T02:38:46.988Z,19.53
2019-05-01T02:40:19.386Z,17.17
2019-05-01T02:41:51.840Z,18.53
2019-05-01T02:43:24.252Z,15.73
2019-05-01T02:44:56.748Z,17.83
2019-05-01T02:46:29.114Z,21.23
2019-05-01T02:48:01.581Z,17.57
2019-05-01T02:49:34.060Z,19.53
2019-05-01T02:51:06.437Z,17.47
2019-05-01T02:52:38.884Z,13.83
2019-05-01T02:54:11.280Z,15.47
2019-05-01T02:55:43.708Z,18.20
2019-05-01T02:57:16.110Z,18.03
2019-05-01T02:58:48.581Z,19.77
2019-05-01T03:00:20.988Z,18.57
2019-05-01T03:01:53.464Z,15.40
2019-05-01T03:03:25.888Z,18.30
2019-05-01T03:04:58.301Z,15.73
2019-05-01T03:06:30.879Z,14.77
2019-05-01T03:08:03.481Z,15.40
2019-05-01T03:09:35.888Z,17.17
2019-05-01T03:11:08.292Z,17.50
2019-05-01T03:12:40.685Z,16.87
2019-05-01T03:14:13.102Z,14.90
2019-05-01T03:15:45.505Z,17.67
2019-05-01T03:17:18.004Z,14.27
2019-05-01T03:18:50.450Z,18.07
2019-05-01T03:20:23.112Z,15.43
2019-05-01T03:21:55.622Z,17.47
2019-05-01T03:23:28.049Z,15.43
2019-05-01T03:25:00.527Z,18.07
2019-05-01T03:26:32.999Z,13.93
2019-05-01T03:28:06.423Z,18.97
2019-05-01T03:29:38.842Z,17.17
2019-05-01T03:31:11.319Z,18.23
2019-05-01T03:32:43.724Z,19.50
2019-05-01T03:34:16.247Z,18.30
2019-05-01T03:35:48.736Z,15.27
2019-05-01T03:37:21.198Z,15.13
2019-05-01T03:38:53.689Z,14.10
2019-05-01T03:40:26.091Z,14.97
2019-05-01T03:41:58.507Z,13.87
2019-05-01T03:43:30.977Z,21.23
2019-05-01T03:45:03.494Z,17.80
2019-05-01T03:46:35.908Z,14.03
2019-05-01T03:48:08.311Z,17.87
2019-05-01T03:49:40.814Z,15.03
2019-05-01T03:51:13.231Z,16.67
2019-05-01T03:52:45.709Z,14.60
2019-05-01T03:54:18.197Z,13.47
2019-05-01T03:55:50.532Z,15.53
2019-05-01T03:57:22.939Z,16.30
2019-05-01T03:58:55.435Z,20.53
2019-05-01T04:00:27.862Z,14.03
2019-05-01T04:02:00.337Z,15.07
2019-05-01T04:03:32.859Z,13.40
2019-05-01T04:05:05.284Z,16.27
2019-05-01T04:06:37.683Z,16.70
2019-05-01T04:08:10.091Z,18.53
2019-05-01T04:09:42.443Z,17.37
2019-05-01T04:11:14.913Z,16.97
2019-05-01T04:12:47.287Z,19.67
2019-05-01T04:14:19.791Z,16.20
2019-05-01T04:15:52.892Z,17.90
2019-05-01T04:17:25.305Z,17.07
2019-05-01T04:18:57.715Z,14.97
2019-05-01T04:20:30.205Z,13.70
2019-05-01T04:22:02.610Z,12.83
2019-05-01T04:23:35.077Z,14.43
2019-05-01T04:25:07.504Z,15.63
2019-05-01T04:26:40.176Z,15.13
2019-05-01T04:28:12.514Z,17.33
2019-05-01T04:29:44.994Z,16.47
2019-05-01T04:31:17.490Z,13.57
2019-05-01T04:32:52.763Z,15.50
2019-05-01T04:34:23.913Z,16.77
2019-05-01T04:35:56.404Z,14.10
2019-05-01T04:37:28.743Z,16.03
2019-05-01T04:39:01.393Z,14.97
2019-05-01T04:40:33.957Z,13.13
2019-05-01T04:42:06.371Z,16.23
2019-05-01T04:43:38.845Z,18.53
2019-05-01T04:45:11.334Z,16.80
2019-05-01T04:46:43.839Z,13.83
2019-05-01T04:48:16.303Z,15.30
2019-05-01T04:49:48.729Z,16.27
2019-05-01T04:51:21.260Z,15.60
2019-05-01T04:52:53.733Z,16.27
2019-05-01T04:54:26.062Z,14.73
2019-05-01T04:55:58.415Z,17.03
2019-05-01T04:57:30.820Z,14.23
2019-05-01T04:59:03.220Z,15.10
2019-05-01T05:00:35.654Z,17.33
2019-05-01T05:02:08.055Z,16.63
2019-05-01T05:03:40.455Z,18.10
2019-05-01T05:05:12.791Z,14.37
2019-05-01T05:06:45.351Z,15.33
2019-05-01T05:08:17.839Z,14.83
2019-05-01T05:09:50.235Z,16.33
2019-05-01T05:11:22.684Z,15.23
2019-05-01T05:12:55.082Z,14.30
2019-05-01T05:14:27.431Z,14.43
2019-05-01T05:16:02.244Z,18.07
2019-05-01T05:17:34.248Z,16.20
2019-05-01T05:19:06.713Z,14.67
2019-05-01T05:20:39.400Z,15.13
2019-05-01T05:22:11.860Z,19.07
2019-05-01T05:23:44.197Z,14.73
2019-05-01T05:25:16.664Z,17.43
2019-05-01T05:26:49.090Z,16.00
2019-05-01T05:28:21.428Z,16.37
2019-05-01T05:29:53.931Z,14.50
2019-05-01T05:31:26.434Z,17.30
2019-05-01T05:32:58.760Z,17.33
2019-05-01T05:34:31.164Z,15.53
2019-05-01T05:36:03.565Z,17.73
2019-05-01T05:37:35.995Z,21.23
2019-05-01T05:39:08.334Z,15.50
2019-05-01T05:40:40.809Z,18.13
2019-05-01T05:42:13.224Z,14.63
2019-05-01T05:43:45.561Z,18.90
2019-05-01T05:45:17.958Z,15.97
2019-05-01T05:46:50.314Z,13.97
2019-05-01T05:48:22.652Z,20.73
2019-05-01T05:49:55.055Z,19.10
2019-05-01T05:51:27.398Z,14.53
2019-05-01T05:52:59.882Z,18.60
2019-05-01T05:54:32.280Z,19.27
2019-05-01T05:56:04.612Z,16.90
2019-05-01T05:57:36.963Z,15.70
2019-05-01T05:59:09.362Z,17.40
2019-05-01T06:00:41.703Z,18.37
2019-05-01T06:02:14.101Z,15.73
2019-05-01T06:03:46.616Z,16.67
2019-05-01T06:05:18.954Z,18.97
2019-05-01T06:06:51.433Z,18.53
2019-05-01T06:08:23.849Z,20.60
2019-05-01T06:09:56.175Z,15.97
2019-05-01T06:11:29.811Z,17.37
2019-05-01T06:13:02.679Z,18.17
2019-05-01T06:14:35.023Z,20.07
2019-05-01T06:16:07.427Z,18.17
2019-05-01T06:17:40.003Z,18.47
2019-05-01T06:19:14.611Z,17.93
2019-05-01T06:20:46.397Z,20.03
2019-05-01T06:22:18.811Z,21.33
2019-05-01T06:23:52.808Z,20.33
2019-05-01T06:25:25.569Z,18.33
2019-05-01T06:26:58.006Z,17.87
2019-05-01T06:28:30.347Z,19.07
2019-05-01T06:30:06.516Z,19.53
2019-05-01T06:31:36.887Z,24.13
2019-05-01T06:33:09.729Z,22.33
2019-05-01T06:34:43.367Z,19.47
2019-05-01T06:36:15.781Z,21.30
2019-05-01T06:37:48.133Z,19.13
2019-05-01T06:39:21.025Z,18.90
2019-05-01T06:40:58.293Z,22.17
2019-05-01T06:42:30.489Z,21.77
2019-05-01T06:44:04.133Z,19.53
2019-05-01T06:45:37.100Z,18.83
2019-05-01T06:47:09.485Z,18.47
2019-05-01T06:48:41.896Z,21.30
2019-05-01T06:50:14.395Z,21.20
2019-05-01T06:51:48.080Z,20.67
2019-05-01T06:53:20.856Z,19.73
2019-05-01T06:54:53.636Z,18.73
2019-05-01T06:56:26.188Z,20.10
2019-05-01T06:57:58.691Z,17.37
2019-05-01T06:59:33.190Z,19.10
2019-05-01T07:01:05.158Z,19.77
2019-05-01T07:02:37.566Z,20.10
2019-05-01T07:04:09.983Z,21.27
2019-05-01T07:05:44.608Z,21.80
2019-05-01T07:07:24.997Z,20.20
2019-05-01T07:08:50.547Z,19.10
2019-05-01T07:10:30.575Z,18.03
2019-05-01T07:11:57.102Z,19.90
2019-05-01T07:13:29.564Z,18.00
2019-05-01T07:15:01.990Z,18.50
2019-05-01T07:16:38.113Z,17.00
2019-05-01T07:18:11.372Z,16.80
2019-05-01T07:19:42.734Z,18.87
2019-05-01T07:21:15.438Z,19.33
2019-05-01T07:22:47.856Z,15.83
2019-05-01T07:24:24.223Z,18.37
2019-05-01T07:25:54.399Z,19.67
2019-05-01T07:27:26.885Z,18.07
2019-05-01T07:28:59.219Z,19.17
2019-05-01T07:30:31.631Z,20.73
2019-05-01T07:32:06.393Z,19.10
2019-05-01T07:33:38.140Z,15.40
2019-05-01T07:35:10.646Z,16.63
2019-05-01T07:36:45.661Z,19.33
2019-05-01T07:38:17.107Z,17.00
2019-05-01T07:39:51.460Z,19.97
2019-05-01T07:41:23.636Z,18.27
2019-05-01T07:42:56.044Z,16.90
2019-05-01T07:44:30.012Z,19.00
2019-05-01T07:46:02.576Z,17.77
2019-05-01T07:47:34.982Z,17.97
2019-05-01T07:49:07.413Z,16.60
2019-05-01T07:50:39.814Z,18.80
2019-05-01T07:52:12.483Z,16.00
2019-05-01T07:53:46.238Z,19.63
2019-05-01T07:55:20.074Z,17.50
2019-05-01T07:56:52.667Z,23.80
2019-05-01T07:58:25.106Z,17.87
2019-05-01T07:59:58.380Z,16.37
2019-05-01T08:01:31.624Z,19.13
2019-05-01T08:03:07.291Z,16.50
2019-05-01T08:04:38.295Z,17.67
2019-05-01T08:06:10.698Z,19.53
2019-05-01T08:07:43.137Z,16.43
2019-05-01T08:09:16.476Z,15.30
2019-05-01T08:10:49.039Z,19.87
2019-05-01T08:12:23.944Z,17.70
2019-05-01T08:14:07.060Z,16.97
2019-05-01T08:15:32.508Z,16.63
2019-05-01T08:17:03.960Z,16.77
2019-05-01T08:18:36.481Z,16.87
2019-05-01T08:20:09.910Z,17.63
2019-05-01T08:21:42.995Z,17.63
2019-05-01T08:23:15.768Z,19.63
2019-05-01T08:24:48.136Z,18.37
2019-05-01T08:26:20.603Z,21.33
2019-05-01T08:27:56.349Z,17.53
2019-05-01T08:29:27.101Z,20.27
2019-05-01T08:30:59.579Z,16.03
2019-05-01T08:32:33.904Z,17.60
2019-05-01T08:34:06.018Z,17.47
2019-05-01T08:35:38.514Z,16.03
2019-05-01T08:37:10.859Z,18.70
2019-05-01T08:38:43.203Z,16.10
2019-05-01T08:40:15.950Z,17.10
2019-05-01T08:41:49.784Z,18.97
2019-05-01T08:43:22.156Z,19.93
2019-05-01T08:44:54.575Z,19.23
2019-05-01T08:46:27.213Z,22.07
2019-05-01T08:48:00.426Z,17.80
2019-05-01T08:49:33.843Z,21.03
2019-05-01T08:51:06.368Z,14.53
2019-05-01T08:52:42.773Z,14.93
2019-05-01T08:54:12.817Z,15.07
2019-05-01T08:55:47.065Z,14.33
2019-05-01T08:57:19.287Z,14.17
2019-05-01T08:58:51.648Z,15.97
2019-05-01T09:00:24.240Z,14.23
2019-05-01T09:02:09.057Z,16.97
2019-05-01T09:05:33.944Z,15.97
2019-05-01T09:07:05.081Z,16.20
2019-05-01T09:08:37.488Z,16.33
2019-05-01T09:10:09.911Z,15.77
2019-05-01T09:11:42.525Z,15.93
2019-05-01T09:13:18.855Z,16.50
2019-05-01T09:14:51.205Z,13.87
2019-05-01T09:16:23.446Z,18.80
2019-05-01T09:17:57.193Z,14.50
2019-05-01T09:19:29.611Z,13.40
2019-05-01T09:21:02.152Z,15.50
2019-05-01T09:22:34.871Z,15.00
2019-05-01T09:24:07.223Z,14.33
2019-05-01T09:25:39.725Z,16.40
2019-05-01T09:27:12.346Z,13.63
2019-05-01T09:28:44.779Z,13.97
2019-05-01T09:30:17.143Z,12.23
2019-05-01T09:31:49.583Z,12.93
2019-05-01T09:33:21.919Z,16.70
2019-05-01T09:34:54.411Z,13.13
2019-05-01T09:36:26.856Z,13.90
2019-05-01T09:37:59.374Z,13.73
2019-05-01T09:39:32.160Z,14.73
2019-05-01T09:41:04.587Z,13.50
2019-05-01T09:42:37.026Z,16.93
2019-05-01T09:44:10.682Z,16.63
2019-05-01T09:45:43.570Z,16.00
2019-05-01T09:47:15.950Z,16.97
2019-05-01T09:48:48.362Z,16.23
2019-05-01T09:50:20.938Z,13.80
2019-05-01T09:51:53.357Z,14.53
2019-05-01T09:53:29.758Z,14.50
2019-05-01T09:54:59.891Z,16.03
2019-05-01T09:56:32.306Z,18.40
2019-05-01T09:58:04.852Z,13.97
2019-05-01T09:59:37.259Z,16.67
2019-05-01T10:01:09.608Z,13.23
2019-05-01T10:02:43.820Z,14.17
2019-05-01T10:04:16.091Z,17.83
2019-05-01T10:05:48.505Z,14.60
2019-05-01T10:07:23.821Z,19.23
2019-05-01T10:08:55.045Z,16.03
2019-05-01T10:10:30.621Z,15.67
2019-05-01T10:12:03.231Z,13.83
2019-05-01T10:13:35.823Z,15.00
2019-05-01T10:15:08.316Z,14.97
2019-05-01T10:16:40.699Z,13.60
2019-05-01T10:18:13.180Z,16.80
2019-05-01T10:19:46.011Z,17.20
2019-05-01T10:21:22.344Z,17.37
2019-05-01T10:22:52.416Z,15.20
2019-05-01T10:24:24.942Z,13.60
2019-05-01T10:25:57.356Z,14.73
2019-05-01T10:27:30.976Z,12.70
2019-05-01T10:29:04.040Z,16.27
2019-05-01T10:30:37.557Z,11.53
2019-05-01T10:32:09.989Z,17.17
2019-05-01T10:33:42.481Z,16.67
2019-05-01T10:35:19.308Z,15.10
2019-05-01T10:36:49.885Z,14.90
2019-05-01T10:38:23.908Z,13.57
2019-05-01T10:39:57.476Z,13.33
2019-05-01T10:41:29.947Z,13.67
2019-05-01T10:43:02.364Z,11.00
2019-05-01T10:44:34.708Z,14.63
2019-05-01T10:46:07.264Z,11.50
2019-05-01T10:47:39.725Z,12.70
2019-05-01T10:49:12.136Z,16.45
2019-05-01T10:50:44.562Z,14.60
2019-05-01T10:52:16.989Z,15.80
2019-05-01T10:53:49.484Z,16.60
2019-05-01T10:55:21.982Z,15.73
2019-05-01T10:56:54.455Z,15.33
2019-05-01T10:58:26.807Z,14.77
2019-05-01T10:59:59.200Z,15.40
2019-05-01T11:01:31.838Z,14.47
2019-05-01T11:03:04.408Z,16.57
2019-05-01T11:04:39.813Z,12.83
2019-05-01T11:06:12.176Z,16.47
2019-05-01T11:07:44.584Z,14.03
2019-05-01T11:09:17.000Z,14.23
2019-05-01T11:10:49.542Z,15.60
2019-05-01T11:12:21.912Z,14.50
2019-05-01T11:13:54.315Z,16.53
2019-05-01T11:15:26.718Z,11.53
2019-05-01T11:16:59.099Z,14.90
2019-05-01T11:18:31.535Z,12.33
2019-05-01T11:20:04.040Z,15.33
2019-05-01T11:21:36.405Z,14.17
2019-05-01T11:23:08.758Z,14.00
2019-05-01T11:24:41.163Z,12.03
2019-05-01T11:26:13.606Z,13.20
2019-05-01T11:27:45.964Z,14.20
2019-05-01T11:29:18.359Z,15.87
2019-05-01T11:30:50.698Z,12.78
2019-05-01T11:32:23.123Z,14.50
2019-05-01T11:33:55.562Z,12.58
2019-05-01T11:35:28.016Z,14.43
2019-05-01T11:37:00.509Z,11.35
2019-05-01T11:38:32.939Z,14.73
2019-05-01T11:40:05.275Z,14.30
2019-05-01T11:41:37.707Z,15.20
2019-05-01T11:43:10.168Z,14.35
2019-05-01T11:44:42.587Z,12.10
2019-05-01T11:46:15.063Z,13.45
2019-05-01T11:47:47.930Z,12.60
2019-05-01T11:49:20.264Z,15.78
2019-05-01T11:50:52.752Z,12.15
2019-05-01T11:52:25.430Z,13.08
2019-05-01T11:54:02.320Z,15.78
2019-05-01T11:55:34.816Z,12.78
2019-05-01T11:57:07.364Z,14.30
2019-05-01T11:58:39.722Z,14.45
2019-05-01T12:00:13.463Z,15.43
2019-05-01T12:01:45.982Z,12.47
2019-05-01T12:03:18.352Z,12.80
2019-05-01T12:04:50.684Z,13.22
2019-05-01T12:06:23.437Z,12.50
2019-05-01T12:07:56.207Z,15.48
2019-05-01T12:09:28.813Z,15.53
2019-05-01T12:11:01.216Z,12.73
2019-05-01T12:12:33.585Z,12.70
2019-05-01T12:14:06.078Z,19.27
2019-05-01T12:15:38.479Z,13.35
2019-05-01T12:17:10.876Z,12.63
2019-05-01T12:18:45.224Z,13.00
2019-05-01T12:20:17.776Z,11.80
2019-05-01T12:21:50.192Z,12.07
2019-05-01T12:23:22.619Z,12.82
2019-05-01T12:24:55.021Z,12.60
2019-05-01T12:26:27.427Z,13.55
2019-05-01T12:27:59.781Z,13.13
2019-05-01T12:29:32.231Z,15.50
2019-05-01T12:31:04.705Z,15.10
2019-05-01T12:32:37.131Z,15.10
2019-05-01T12:34:09.627Z,16.30
2019-05-01T12:35:42.444Z,20.75
2019-05-01T12:37:14.857Z,15.45
2019-05-01T12:38:47.454Z,13.98
2019-05-01T12:40:19.955Z,18.12
2019-05-01T12:41:52.931Z,17.40
2019-05-01T12:43:25.408Z,11.30
2019-05-01T12:44:58.027Z,11.93
2019-05-01T12:46:30.468Z,14.23
2019-05-01T12:48:02.883Z,15.50
2019-05-01T12:49:35.420Z,13.65
2019-05-01T12:51:07.865Z,14.68
2019-05-01T12:52:40.324Z,9.90
2019-05-01T12:54:12.654Z,14.13
2019-05-01T12:55:45.017Z,12.40
2019-05-01T12:57:17.500Z,13.65
2019-05-01T12:58:49.993Z,11.20
2019-05-01T13:00:22.347Z,11.75
2019-05-01T13:01:54.679Z,10.95
2019-05-01T13:03:27.015Z,11.35
2019-05-01T13:04:59.348Z,11.53
2019-05-01T13:06:31.855Z,9.58
2019-05-01T13:08:04.264Z,12.45
2019-05-01T13:09:36.686Z,14.47
2019-05-01T13:11:09.201Z,11.60
2019-05-01T13:12:41.699Z,12.88
2019-05-01T13:14:14.043Z,12.30
2019-05-01T13:15:46.401Z,13.75
2019-05-01T13:17:18.897Z,10.23
2019-05-01T13:18:51.303Z,11.93
2019-05-01T13:20:23.748Z,11.35
2019-05-01T13:21:56.180Z,10.45
2019-05-01T13:23:28.508Z,12.40
2019-05-01T13:25:00.869Z,7.03
2019-05-01T13:26:33.281Z,8.68
2019-05-01T13:28:05.640Z,10.90
2019-05-01T13:29:37.978Z,13.13
2019-05-01T13:31:10.409Z,9.20
2019-05-01T13:32:42.834Z,10.15
2019-05-01T13:34:16.881Z,11.12
2019-05-01T13:35:49.295Z,11.28
2019-05-01T13:37:21.763Z,11.12
2019-05-01T13:38:54.177Z,10.35
2019-05-01T13:40:26.672Z,12.70
2019-05-01T13:41:59.011Z,13.68
2019-05-01T13:43:31.429Z,10.15
2019-05-01T13:45:03.851Z,12.33
2019-05-01T13:46:36.228Z,9.70
2019-05-01T13:48:08.988Z,12.63
2019-05-01T13:49:41.762Z,11.80
2019-05-01T13:51:14.102Z,13.20
2019-05-01T13:52:46.531Z,14.93
2019-05-01T13:54:18.942Z,13.62
2019-05-01T13:55:51.282Z,10.40
2019-05-01T13:57:25.319Z,13.60
2019-05-01T13:58:57.736Z,9.63
2019-05-01T14:00:30.091Z,12.82
2019-05-01T14:02:02.499Z,13.18
2019-05-01T14:03:35.003Z,13.60
2019-05-01T14:05:07.460Z,14.18
2019-05-01T14:06:39.920Z,13.03
2019-05-01T14:08:12.345Z,13.65
2019-05-01T14:09:44.679Z,14.03
2019-05-01T14:11:17.081Z,11.70
2019-05-01T14:12:49.509Z,16.73
2019-05-01T14:14:21.951Z,15.65
2019-05-01T14:15:54.421Z,14.10
2019-05-01T14:17:27.123Z,14.55
2019-05-01T14:18:59.614Z,11.70
2019-05-01T14:20:32.089Z,10.35
2019-05-01T14:22:04.539Z,12.30
2019-05-01T14:23:36.961Z,11.45
2019-05-01T14:25:09.388Z,11.35
2019-05-01T14:26:41.888Z,10.40
2019-05-01T14:28:14.397Z,14.43
2019-05-01T14:29:46.778Z,14.13
2019-05-01T14:31:19.124Z,13.32
2019-05-01T14:32:51.781Z,11.15
2019-05-01T14:34:24.486Z,11.28
2019-05-01T14:35:56.961Z,12.98
2019-05-01T14:37:30.091Z,12.78
2019-05-01T14:39:02.687Z,11.33
2019-05-01T14:40:35.161Z,11.38
2019-05-01T14:42:07.486Z,10.43
2019-05-01T14:43:40.495Z,10.05
2019-05-01T14:45:12.842Z,9.03
2019-05-01T14:46:45.323Z,9.83
2019-05-01T14:48:17.873Z,10.53
2019-05-01T14:49:50.301Z,10.00
2019-05-01T14:51:22.766Z,13.45
2019-05-01T14:52:55.339Z,13.40
2019-05-01T14:54:27.678Z,12.13
2019-05-01T14:56:00.109Z,12.65
2019-05-01T14:57:32.617Z,16.12
2019-05-01T14:59:05.099Z,9.90
2019-05-01T15:00:37.509Z,10.35
2019-05-01T15:02:09.863Z,11.65
2019-05-01T15:03:42.287Z,13.88
2019-05-01T15:05:14.766Z,13.95
2019-05-01T15:06:47.123Z,10.58
2019-05-01T15:08:19.606Z,12.07
2019-05-01T15:09:51.955Z,9.65
2019-05-01T15:11:24.448Z,11.35
2019-05-01T15:12:56.871Z,10.68
2019-05-01T15:14:29.207Z,10.28
2019-05-01T15:16:01.784Z,11.25
2019-05-01T15:17:34.208Z,8.78
2019-05-01T15:19:06.575Z,14.25
2019-05-01T15:20:39.046Z,12.03
2019-05-01T15:22:11.392Z,11.90
2019-05-01T15:23:53.322Z,9.48
2019-05-01T15:25:17.836Z,10.48
2019-05-01T15:26:50.332Z,11.57
2019-05-01T15:28:22.768Z,12.07
2019-05-01T15:29:55.255Z,11.28
2019-05-01T15:31:27.802Z,14.18
2019-05-01T15:33:00.311Z,11.22
2019-05-01T15:34:33.024Z,11.33
2019-05-01T15:36:05.500Z,13.93
2019-05-01T15:37:37.855Z,11.45
2019-05-01T15:39:10.268Z,14.18
2019-05-01T15:40:42.612Z,12.37
2019-05-01T15:42:15.088Z,14.40
2019-05-01T15:43:47.507Z,11.18
2019-05-01T15:45:19.916Z,12.90
2019-05-01T15:46:52.248Z,14.38
2019-05-01T15:48:24.676Z,15.18
2019-05-01T15:49:57.007Z,11.30
2019-05-01T15:51:29.428Z,14.70
2019-05-01T15:53:01.835Z,13.38
2019-05-01T15:54:34.411Z,14.85
2019-05-01T15:56:06.834Z,12.90
2019-05-01T15:57:39.250Z,14.83
2019-05-01T15:59:11.615Z,14.25
2019-05-01T16:00:44.029Z,15.90
2019-05-01T16:02:16.516Z,14.15
2019-05-01T16:03:48.987Z,14.80
2019-05-01T16:05:21.396Z,17.07
2019-05-01T16:06:53.879Z,13.48
2019-05-01T16:08:26.364Z,18.70
2019-05-01T16:10:01.092Z,15.43
2019-05-01T16:11:33.661Z,15.03
2019-05-01T16:13:06.087Z,17.27
2019-05-01T16:14:38.431Z,16.27
2019-05-01T16:16:10.866Z,16.15
2019-05-01T16:17:43.348Z,15.90
2019-05-01T16:19:15.687Z,13.10
2019-05-01T16:20:48.115Z,16.42
2019-05-01T16:22:20.569Z,16.60
2019-05-01T16:23:52.908Z,14.70
2019-05-01T16:25:25.408Z,13.88
2019-05-01T16:26:57.783Z,17.87
2019-05-01T16:28:30.129Z,18.02
2019-05-01T16:30:02.540Z,15.28
2019-05-01T16:31:35.047Z,16.82
2019-05-01T16:33:07.464Z,12.25
2019-05-01T16:34:39.942Z,18.23
2019-05-01T16:36:12.669Z,16.27
2019-05-01T16:37:45.091Z,16.32
2019-05-01T16:39:17.500Z,15.70
2019-05-01T16:40:50.013Z,18.17
2019-05-01T16:42:22.355Z,15.15
2019-05-01T16:43:54.807Z,19.90
2019-05-01T16:45:27.235Z,13.72
2019-05-01T16:47:00.026Z,17.45
2019-05-01T16:48:32.467Z,16.37
2019-05-01T16:50:04.947Z,14.58
2019-05-01T16:51:37.332Z,20.68
2019-05-01T16:53:09.779Z,16.02
2019-05-01T16:54:42.405Z,16.93
2019-05-01T16:56:15.123Z,16.35
2019-05-01T16:57:47.543Z,16.37
2019-05-01T16:59:20.044Z,14.18
2019-05-01T17:00:52.384Z,16.42
2019-05-01T17:02:24.930Z,13.98
2019-05-01T17:03:57.416Z,14.85
2019-05-01T17:05:29.826Z,15.90
2019-05-01T17:07:02.273Z,16.90
2019-05-01T17:08:36.457Z,17.60
2019-05-01T17:10:08.969Z,15.83
2019-05-01T17:11:41.379Z,16.12
2019-05-01T17:13:14.219Z,14.13
2019-05-01T17:14:46.583Z,16.35
2019-05-01T17:16:20.555Z,18.37
2019-05-01T17:17:52.976Z,15.10
2019-05-01T17:19:25.524Z,14.43
2019-05-01T17:20:58.068Z,14.78
2019-05-01T17:22:30.572Z,18.37
2019-05-01T17:24:03.081Z,17.07
2019-05-01T17:25:35.419Z,16.65
2019-05-01T17:27:07.840Z,16.42
2019-05-01T17:28:40.285Z,21.33
2019-05-01T17:30:12.623Z,14.75
2019-05-01T17:31:45.221Z,13.43
2019-05-01T17:33:20.691Z,19.98
2019-05-01T17:34:51.751Z,18.23
2019-05-01T17:36:24.158Z,17.50
2019-05-01T17:37:56.522Z,18.37
2019-05-01T17:39:28.976Z,18.07
2019-05-01T17:41:01.390Z,21.97
2019-05-01T17:42:37.743Z,16.25
2019-05-01T17:44:08.122Z,17.50
2019-05-01T17:45:40.538Z,15.43
2019-05-01T17:47:13.229Z,16.90
2019-05-01T17:48:45.904Z,19.05
2019-05-01T17:50:21.145Z,19.35
2019-05-01T17:51:52.477Z,16.15
2019-05-01T17:53:24.974Z,19.52
2019-05-01T17:54:57.704Z,16.00
2019-05-01T17:56:30.218Z,15.80
2019-05-01T17:58:02.588Z,15.30
2019-05-01T17:59:35.235Z,15.55
2019-05-01T18:01:07.783Z,16.82
2019-05-01T18:02:41.920Z,16.17
2019-05-01T18:04:14.415Z,13.83
2019-05-01T18:05:46.756Z,18.42
2019-05-01T18:07:19.114Z,16.87
2019-05-01T18:09:02.497Z,15.40
2019-05-01T18:10:26.613Z,18.70
2019-05-01T18:11:59.602Z,19.20
2019-05-01T18:13:32.155Z,15.98
2019-05-01T18:15:06.260Z,18.32
2019-05-01T18:16:39.030Z,15.88
2019-05-01T18:18:14.989Z,19.92
2019-05-01T18:19:45.594Z,15.00
2019-05-01T18:21:36.399Z,16.10
2019-05-01T18:23:21.924Z,19.57
2019-05-01T18:24:58.463Z,15.88
2019-05-01T18:26:28.469Z,21.25
2019-05-01T18:28:01.112Z,24.43
2019-05-01T18:29:35.496Z,16.52
2019-05-01T18:31:18.005Z,19.30
2019-05-01T18:32:52.476Z,19.87
2019-05-01T18:34:24.809Z,16.07
2019-05-01T18:35:57.214Z,14.68
2019-05-01T18:37:31.212Z,15.32
2019-05-01T18:39:15.771Z,16.73
2019-05-01T18:40:39.216Z,15.83
2019-05-01T18:42:11.686Z,16.05
2019-05-01T18:43:47.072Z,16.75
2019-05-01T18:45:24.587Z,17.60
2019-05-01T18:46:54.187Z,20.12
2019-05-01T18:48:26.988Z,15.90
2019-05-01T18:49:59.420Z,19.77
2019-05-01T18:51:36.150Z,16.80
2019-05-01T18:53:06.753Z,21.80
2019-05-01T18:54:40.718Z,17.15
2019-05-01T18:56:13.178Z,19.85
2019-05-01T18:57:49.491Z,16.70
2019-05-01T18:59:21.995Z,19.45
2019-05-01T19:00:54.528Z,20.40
2019-05-01T19:02:27.015Z,15.65
2019-05-01T19:03:59.509Z,19.40
2019-05-01T19:05:31.947Z,18.17
2019-05-01T19:07:10.196Z,17.42
2019-05-01T19:08:42.627Z,21.05
2019-05-01T19:10:15.143Z,20.55
2019-05-01T19:11:47.640Z,25.30
2019-05-01T19:13:20.083Z,21.70
2019-05-01T19:14:52.475Z,19.82
2019-05-01T19:16:25.117Z,20.05
2019-05-01T19:17:57.688Z,23.50
2019-05-01T19:19:32.591Z,20.45
2019-05-01T19:21:05.141Z,21.05
2019-05-01T19:22:37.584Z,20.05
2019-05-01T19:24:10.047Z,18.95
2019-05-01T19:25:42.506Z,19.32
2019-05-01T19:27:18.893Z,19.80
2019-05-01T19:28:49.451Z,19.55
2019-05-01T19:30:22.340Z,21.60
2019-05-01T19:31:56.543Z,20.52
2019-05-01T19:33:28.911Z,20.50
2019-05-01T19:35:01.788Z,20.45
2019-05-01T19:36:34.298Z,21.68
2019-05-01T19:38:06.683Z,19.05
2019-05-01T19:39:43.832Z,26.35
2019-05-01T19:41:14.370Z,36.35
2019-05-01T19:42:46.899Z,32.20
2019-05-01T19:44:20.193Z,25.93
2019-05-01T19:45:53.058Z,24.85
2019-05-01T19:47:25.489Z,21.95
2019-05-01T19:48:57.986Z,24.95
2019-05-01T19:50:30.703Z,22.62
2019-05-01T19:52:03.128Z,29.40
2019-05-01T19:53:35.541Z,24.90
2019-05-01T19:55:08.005Z,27.13
2019-05-01T19:56:40.408Z,26.52
2019-05-01T19:58:12.926Z,24.10
2019-05-01T19:59:45.449Z,21.13